Airfield :
LOGIN :

Register | Disclaimer

   EN    FR    IT 

 










Legend :    VFR   Marginal VFR   IFR   Intensive IFR   Very Intensive IFR
Visi :
Ceiling :
>= 8 km
>= 3000ft
5 to 8 km
1000 to 3000 ft
1500m to 5 km
500 to 1000 ft
800 to 1500m
200 to 500 ft
< 800m
< 200 ft
Symbols :   Thunderstorms  Fog  Heavy snow  Heavy precipitations  Wind > 20 kt
SIGMETs :     Misc.  Thunderstorms  Icing  Turbulence  Mountain Waves  Volcanic Ashes






- Airport Elevation : 236 ft
- IATA code : MMX


ESMS - Malmö Sturup

CURRENT METAR :
  • 231750Z 27010KT 9999 FEW014 03/02 Q0997

EXPIRED METARs :
  • 231720Z 26007KT 9999 FEW010 03/02 Q0997
  • 231650Z 27007KT 9999 SCT008 BKN015 03/03 Q0997
  • 231620Z 27007KT 9999 -SHRA SCT009 BKN023CB 04/03 Q0997
  • 231550Z 26009KT 9999 -SHRA BKN010CB 04/02 Q0997
  • 231520Z 25010KT 9999 -RA SCT008 BKN024 OVC038 04/02 Q0997

TAF TAF ESMS
Valid from the 23 at 18:00 until the 24 at 18:00 UTC


231709Z 2318/2418 28010KT 9999 BKN020
TEMPO 2318/2403 28015G25KT BKN010 SCT020CB
BECMG 2415/2418 16010KT



MET'MAP, your aeronautical weather chart ! - Copyright ORBIFLY December 2007 - Disclaimer

ORBIFLY MET'MAP TEAM :

Programming & Development : Alexandra Zaïnal
Concept & original design : Baudouin d'Aumeries
Assistance for programming : Marc-Olivier Méhu
Technical & hardware support : Manuel Goepfert

Contact : metmap@orbifly.com




SOURCES & CREDITS :

   NOAA